Time;durP1;ratioP1;P1;durP2;ratioP2;P2;SDS_P1;SDS_P2;PMS_P1;PMS_P2;Temp;Humidity;BMP_temperature;BMP_pressure;BME280_temperature;BME280_humidity;BME280_pressure;Samples;Min_cycle;Max_cycle;Signal;HPM_P1;HPM_P2
2021/12/12 00:00:04;;;;;;;30.67;9.85;;;6.40;85.70;;;;;;5087724;28;20044;-85
2021/12/12 00:02:45;;;;;;;33.25;9.52;;;6.30;85.70;;;;;;5089527;28;20055;-85
2021/12/12 00:05:20;;;;;;;20.27;8.55;;;6.40;85.70;;;;;;5086595;28;20040;-85
2021/12/12 00:07:48;;;;;;;25.48;8.13;;;6.40;85.70;;;;;;5096977;28;20044;-85
2021/12/12 00:10:23;;;;;;;24.33;8.93;;;6.40;85.70;;;;;;5088470;28;20049;-85
2021/12/12 00:12:54;;;;;;;30.58;10.23;;;6.40;85.70;;;;;;5088559;28;20063;-85
2021/12/12 00:15:24;;;;;;;30.02;9.52;;;6.40;85.70;;;;;;5091604;28;20052;-85
2021/12/12 00:17:52;;;;;;;30.27;8.70;;;6.40;85.70;;;;;;5088506;28;20411;-85
2021/12/12 00:20:23;;;;;;;25.30;9.52;;;6.40;85.70;;;;;;5088575;28;20110;-84
2021/12/12 00:22:55;;;;;;;23.75;9.10;;;6.40;85.80;;;;;;5088626;28;20055;-84
2021/12/12 00:25:22;;;;;;;23.23;8.90;;;6.40;85.80;;;;;;5088455;28;20043;-84
2021/12/12 00:27:49;;;;;;;30.48;11.07;;;6.40;85.80;;;;;;5087371;28;20063;-84
2021/12/12 00:30:16;;;;;;;25.38;10.82;;;6.40;85.80;;;;;;5090595;28;20044;-84
2021/12/12 00:32:44;;;;;;;27.30;11.25;;;6.40;85.80;;;;;;5088323;28;20126;-84
2021/12/12 00:35:13;;;;;;;33.08;11.13;;;6.40;85.80;;;;;;5090023;28;20044;-85
2021/12/12 00:37:41;;;;;;;32.53;12.85;;;6.40;85.80;;;;;;5092266;28;20048;-84
2021/12/12 00:40:18;;;;;;;24.38;11.48;;;6.40;85.80;;;;;;5092309;28;20133;-84
2021/12/12 00:42:46;;;;;;;35.50;12.43;;;6.40;85.80;;;;;;5092470;28;20048;-84
2021/12/12 00:45:15;;;;;;;25.33;11.68;;;6.40;85.80;;;;;;5094299;28;20131;-84
2021/12/12 00:47:43;;;;;;;27.85;12.43;;;6.40;85.90;;;;;;5092117;28;20063;-84
2021/12/12 00:50:15;;;;;;;25.45;12.98;;;6.40;85.90;;;;;;5090307;28;20046;-84
2021/12/12 00:52:45;;;;;;;21.75;11.70;;;6.40;85.90;;;;;;5091964;28;20051;-84
2021/12/12 00:55:12;;;;;;;26.08;11.85;;;6.40;85.90;;;;;;5090895;28;20420;-84
2021/12/12 00:57:39;;;;;;;23.90;11.85;;;6.40;85.90;;;;;;5092589;28;20048;-84
2021/12/12 01:00:11;;;;;;;28.80;12.85;;;6.40;85.90;;;;;;5093619;28;20074;-84
2021/12/12 01:02:38;;;;;;;28.50;12.80;;;6.40;86.00;;;;;;5090322;28;20391;-85
2021/12/12 01:05:07;;;;;;;27.30;13.30;;;6.40;86.00;;;;;;5091803;28;20044;-85
2021/12/12 01:07:37;;;;;;;27.40;13.00;;;6.40;86.00;;;;;;5091772;28;20044;-84
2021/12/12 01:10:24;;;;;;;22.95;11.52;;;6.40;86.00;;;;;;5091830;28;20055;-84
2021/12/12 01:12:53;;;;;;;19.60;12.10;;;6.40;86.00;;;;;;5091516;28;20497;-85
2021/12/12 01:15:29;;;;;;;23.52;12.32;;;6.40;86.00;;;;;;5093786;28;20044;-85
2021/12/12 01:17:59;;;;;;;22.48;12.18;;;6.40;86.00;;;;;;5091787;28;20058;-85
2021/12/12 01:20:38;;;;;;;19.25;11.32;;;6.40;86.00;;;;;;5090358;28;20062;-85
2021/12/12 01:23:14;;;;;;;20.48;12.93;;;6.40;86.10;;;;;;5091524;28;20046;-84
2021/12/12 01:25:45;;;;;;;19.77;13.10;;;6.40;86.10;;;;;;5091342;28;20139;-85
2021/12/12 01:28:15;;;;;;;25.95;13.18;;;6.40;86.10;;;;;;5090080;28;20044;-85
2021/12/12 01:30:43;;;;;;;19.58;12.00;;;6.40;86.10;;;;;;5091768;28;20044;-85
2021/12/12 01:33:11;;;;;;;27.67;13.93;;;6.40;86.10;;;;;;5089685;28;20040;-84
2021/12/12 01:35:40;;;;;;;22.27;13.55;;;6.40;86.10;;;;;;5089924;28;20051;-85
2021/12/12 01:40:57;;;;;;;23.45;13.30;;;6.40;86.20;;;;;;5091123;28;20514;-85
2021/12/12 01:43:40;;;;;;;22.77;12.35;;;6.40;86.20;;;;;;5091195;28;20044;-85
2021/12/12 01:46:33;;;;;;;20.38;12.65;;;6.40;86.20;;;;;;5076092;28;20040;-85
2021/12/12 01:49:14;;;;;;;19.20;13.05;;;6.40;86.20;;;;;;5075352;28;20041;-84
2021/12/12 01:51:44;;;;;;;20.33;11.82;;;6.40;86.30;;;;;;5091388;28;20054;-84
2021/12/12 01:54:13;;;;;;;16.80;11.85;;;6.50;86.30;;;;;;5091232;28;20052;-85
2021/12/12 01:56:49;;;;;;;18.77;12.73;;;6.50;86.30;;;;;;5090701;28;20074;-85
2021/12/12 01:59:18;;;;;;;17.45;12.05;;;6.50;86.40;;;;;;5090854;28;20227;-85
2021/12/12 02:01:53;;;;;;;19.15;12.10;;;6.50;86.40;;;;;;5090031;28;20054;-84
2021/12/12 02:04:29;;;;;;;18.27;12.40;;;6.50;86.40;;;;;;5090747;28;20056;-85
2021/12/12 02:06:58;;;;;;;18.85;12.10;;;6.50;86.40;;;;;;5089897;28;20437;-85
2021/12/12 02:09:25;;;;;;;18.10;12.02;;;6.50;86.40;;;;;;5088373;28;20139;-84
2021/12/12 02:11:56;;;;;;;17.40;12.32;;;6.50;86.40;;;;;;5090661;28;20044;-85
2021/12/12 02:14:24;;;;;;;21.02;12.60;;;6.50;86.50;;;;;;5089143;28;20048;-85
2021/12/12 02:16:58;;;;;;;15.65;10.68;;;6.50;86.50;;;;;;5089995;28;20143;-85
2021/12/12 02:19:34;;;;;;;19.40;12.10;;;6.50;86.50;;;;;;5090444;28;20040;-85
2021/12/12 02:22:31;;;;;;;18.58;12.63;;;6.60;86.50;;;;;;5074954;28;20046;-85
2021/12/12 02:36:13;;;;;;;18.92;13.10;;;6.60;86.60;;;;;;5089991;28;20082;-85
2021/12/12 02:38:41;;;;;;;19.67;12.70;;;6.60;86.60;;;;;;5089929;28;20048;-84
2021/12/12 02:41:13;;;;;;;20.58;14.32;;;6.70;86.60;;;;;;5090140;28;20044;-85
2021/12/12 02:43:46;;;;;;;18.55;12.38;;;6.60;86.70;;;;;;5089931;28;20058;-84
2021/12/12 02:46:17;;;;;;;19.80;14.60;;;6.70;86.70;;;;;;5088342;28;20425;-85
2021/12/12 02:48:46;;;;;;;25.90;13.07;;;6.70;86.70;;;;;;5091047;28;20044;-84
2021/12/12 02:51:18;;;;;;;20.05;13.38;;;6.70;86.70;;;;;;5090234;28;20413;-85
2021/12/12 02:53:54;;;;;;;19.88;13.52;;;6.70;86.70;;;;;;5088486;28;20065;-84
2021/12/12 02:56:26;;;;;;;21.48;14.15;;;6.70;86.70;;;;;;5089557;28;20044;-85
2021/12/12 02:58:54;;;;;;;16.90;11.95;;;6.70;86.80;;;;;;5088660;28;20055;-85
2021/12/12 03:01:30;;;;;;;18.52;13.10;;;6.70;86.80;;;;;;5089509;28;20526;-84
2021/12/12 03:03:57;;;;;;;21.63;14.18;;;6.70;86.80;;;;;;5073466;28;20044;-84
2021/12/12 03:06:28;;;;;;;21.92;13.32;;;6.70;86.80;;;;;;5087285;28;20056;-85
2021/12/12 03:09:07;;;;;;;18.13;12.90;;;6.70;86.80;;;;;;5089946;28;20044;-85
2021/12/12 03:11:35;;;;;;;22.73;13.88;;;6.80;86.80;;;;;;5089277;28;20052;-85
2021/12/12 03:14:03;;;;;;;19.38;13.02;;;6.80;86.80;;;;;;5088949;28;20040;-84
2021/12/12 03:16:31;;;;;;;18.55;13.02;;;6.70;86.80;;;;;;5089358;28;20076;-85
2021/12/12 03:18:58;;;;;;;19.98;12.57;;;6.80;86.90;;;;;;5073452;28;20086;-85
2021/12/12 03:21:30;;;;;;;18.35;13.30;;;6.80;86.80;;;;;;5087170;28;20044;-84
2021/12/12 03:24:01;;;;;;;22.00;12.38;;;6.80;86.90;;;;;;5088502;28;20048;-85
2021/12/12 03:26:29;;;;;;;20.42;13.23;;;6.80;86.90;;;;;;5087697;28;20047;-85
2021/12/12 03:28:59;;;;;;;17.42;12.98;;;6.80;86.90;;;;;;5088696;28;20398;-85
2021/12/12 03:31:35;;;;;;;15.90;11.25;;;6.80;86.90;;;;;;5087860;28;20050;-85
2021/12/12 03:34:13;;;;;;;14.68;11.18;;;6.90;86.90;;;;;;5073769;28;20131;-85
2021/12/12 03:36:42;;;;;;;17.70;12.00;;;6.90;86.90;;;;;;5088348;28;20048;-84
2021/12/12 03:39:17;;;;;;;19.10;12.52;;;6.90;87.00;;;;;;5088883;28;20475;-85
2021/12/12 03:41:45;;;;;;;14.80;11.07;;;6.90;86.90;;;;;;5088920;28;20048;-85
2021/12/12 03:44:16;;;;;;;17.08;11.45;;;6.90;86.90;;;;;;5088488;28;20440;-85
2021/12/12 03:46:47;;;;;;;11.55;9.57;;;6.90;86.90;;;;;;5088954;28;20048;-86
2021/12/12 03:49:15;;;;;;;16.63;11.25;;;6.90;86.90;;;;;;5088863;28;20421;-85
2021/12/12 03:51:44;;;;;;;14.80;10.35;;;6.90;86.90;;;;;;5089358;28;20047;-84
2021/12/12 03:54:11;;;;;;;13.57;10.65;;;6.90;86.90;;;;;;5088857;28;20048;-85
2021/12/12 03:56:40;;;;;;;14.80;10.05;;;6.90;86.90;;;;;;5088746;28;20409;-83
2021/12/12 03:59:07;;;;;;;12.68;10.65;;;6.90;86.90;;;;;;5088643;28;20052;-85
2021/12/12 04:01:44;;;;;;;13.50;9.70;;;6.90;86.90;;;;;;5088627;28;20040;-85
2021/12/12 04:04:20;;;;;;;13.48;10.10;;;7.00;86.90;;;;;;5087267;28;20055;-85
2021/12/12 04:06:49;;;;;;;13.20;10.38;;;7.00;86.90;;;;;;5088823;28;20048;-85
2021/12/12 04:09:17;;;;;;;17.83;10.13;;;7.00;86.90;;;;;;5092823;28;20051;-85
2021/12/12 04:11:49;;;;;;;15.10;10.85;;;7.00;86.90;;;;;;5091242;28;20048;-85
2021/12/12 04:14:17;;;;;;;14.43;10.35;;;7.00;86.90;;;;;;5092712;28;20522;-85
2021/12/12 04:16:52;;;;;;;13.95;10.27;;;7.10;86.90;;;;;;5092672;28;20051;-85
2021/12/12 04:19:19;;;;;;;16.15;11.23;;;7.10;86.90;;;;;;5092755;28;20544;-84
2021/12/12 04:21:47;;;;;;;13.63;9.82;;;7.10;86.90;;;;;;5092660;28;20043;-85
2021/12/12 04:24:34;;;;;;;13.80;11.05;;;7.10;86.90;;;;;;5094779;28;20412;-84
2021/12/12 04:27:03;;;;;;;17.30;11.60;;;7.20;86.90;;;;;;5093151;28;20048;-85
2021/12/12 04:29:33;;;;;;;18.83;11.82;;;7.20;86.90;;;;;;5092402;28;20050;-85
2021/12/12 04:32:05;;;;;;;17.38;13.18;;;7.20;86.90;;;;;;5091167;28;20063;-84
2021/12/12 04:34:37;;;;;;;20.10;13.40;;;7.20;86.90;;;;;;5092444;28;20056;-84
2021/12/12 04:37:05;;;;;;;14.55;11.77;;;7.20;86.90;;;;;;5092381;28;20052;-85
2021/12/12 04:39:37;;;;;;;15.20;12.07;;;7.30;86.90;;;;;;5093717;28;20050;-85
2021/12/12 04:42:17;;;;;;;17.13;12.02;;;7.20;86.90;;;;;;5093415;28;20074;-84
2021/12/12 04:44:48;;;;;;;15.95;11.43;;;7.30;86.90;;;;;;5089597;28;20052;-85
2021/12/12 04:50:28;;;;;;;14.55;11.52;;;7.30;86.90;;;;;;5090735;28;20048;-84
2021/12/12 04:53:08;;;;;;;16.45;11.40;;;7.30;86.90;;;;;;5091883;28;20044;-85
2021/12/12 04:55:47;;;;;;;15.90;10.70;;;7.30;86.90;;;;;;5090481;28;20052;-84
2021/12/12 04:58:50;;;;;;;15.50;11.48;;;7.40;86.90;;;;;;5092018;28;20048;-84
2021/12/12 05:01:33;;;;;;;14.20;10.43;;;7.40;86.90;;;;;;5078393;28;20048;-85
2021/12/12 05:04:32;;;;;;;16.43;10.40;;;7.40;86.90;;;;;;5076097;28;20048;-85
2021/12/12 05:07:20;;;;;;;12.75;9.48;;;7.40;86.90;;;;;;4995450;28;20293;-85
2021/12/12 05:09:53;;;;;;;15.45;10.52;;;7.40;86.90;;;;;;5009125;28;20640;-84
2021/12/12 05:12:34;;;;;;;18.38;12.18;;;7.40;86.90;;;;;;5006979;28;20056;-85
2021/12/12 05:15:21;;;;;;;24.95;13.88;;;7.40;86.90;;;;;;5005652;28;20056;-85
2021/12/12 05:17:53;;;;;;;24.23;15.07;;;7.40;86.90;;;;;;5006280;28;20516;-85
2021/12/12 05:20:27;;;;;;;23.52;15.23;;;7.40;86.90;;;;;;5005532;28;20053;-85
2021/12/12 05:22:59;;;;;;;;;;;7.50;86.90;;;;;;5010869;28;20397;-84
2021/12/12 05:25:34;;;;;;;17.88;13.07;;;7.40;86.90;;;;;;5010228;28;19922;-85
2021/12/12 05:28:03;;;;;;;32.03;18.10;;;7.40;86.90;;;;;;4978993;28;20060;-85
2021/12/12 05:30:33;;;;;;;19.48;13.57;;;7.40;86.90;;;;;;5007176;28;20050;-85
2021/12/12 05:33:03;;;;;;;28.75;17.08;;;7.50;86.90;;;;;;5010514;28;20606;-85
2021/12/12 05:35:34;;;;;;;27.90;15.25;;;7.50;86.90;;;;;;5010228;28;20046;-85
2021/12/12 05:38:07;;;;;;;43.10;22.13;;;7.50;87.00;;;;;;5010043;28;20045;-84
2021/12/12 05:40:36;;;;;;;40.22;19.08;;;7.50;87.00;;;;;;5010200;28;20046;-84
2021/12/12 05:43:05;;;;;;;40.97;19.92;;;7.50;87.00;;;;;;5054813;28;20139;-85
2021/12/12 05:45:33;;;;;;;28.52;15.77;;;7.50;87.00;;;;;;5091331;28;20052;-84
2021/12/12 05:48:04;;;;;;;37.40;17.63;;;7.60;87.10;;;;;;5089517;28;20054;-85
2021/12/12 05:50:31;;;;;;;37.67;19.27;;;7.60;87.10;;;;;;5090955;28;20054;-84
2021/12/12 05:52:58;;;;;;;40.00;20.75;;;7.60;87.10;;;;;;5090417;28;20054;-85
2021/12/12 05:55:29;;;;;;;32.30;17.42;;;7.60;87.10;;;;;;5090887;28;20036;-85
2021/12/12 05:58:00;;;;;;;24.02;15.02;;;7.70;87.10;;;;;;5090908;28;20062;-85
2021/12/12 06:00:32;;;;;;;37.75;18.38;;;7.70;87.10;;;;;;5088807;28;20047;-85
2021/12/12 06:02:59;;;;;;;38.78;19.05;;;7.70;87.20;;;;;;5088570;28;20081;-85
2021/12/12 06:05:27;;;;;;;31.67;16.00;;;7.70;87.10;;;;;;5090628;28;20044;-84
2021/12/12 06:07:55;;;;;;;34.70;18.13;;;7.70;87.20;;;;;;5089002;28;20043;-85
2021/12/12 06:10:24;;;;;;;38.65;18.08;;;7.80;87.20;;;;;;5089473;28;20517;-85
2021/12/12 06:12:53;;;;;;;36.20;18.90;;;7.80;87.10;;;;;;5090572;28;20059;-84
2021/12/12 06:15:23;;;;;;;33.25;19.70;;;7.80;87.20;;;;;;5092692;28;20054;-84
2021/12/12 06:17:51;;;;;;;30.45;16.63;;;7.80;87.20;;;;;;5090315;28;20054;-84
2021/12/12 06:20:19;;;;;;;27.80;17.52;;;7.90;87.20;;;;;;5090346;28;20515;-85
2021/12/12 06:22:48;;;;;;;27.67;15.75;;;7.90;87.20;;;;;;5089864;28;20424;-84
2021/12/12 06:25:16;;;;;;;27.35;15.85;;;7.90;87.20;;;;;;5090419;28;20127;-85
2021/12/12 06:27:43;;;;;;;35.22;18.42;;;7.90;87.20;;;;;;5091053;28;20437;-85
2021/12/12 06:30:14;;;;;;;38.75;18.75;;;7.90;87.20;;;;;;5090171;28;20052;-84
2021/12/12 06:32:43;;;;;;;39.42;18.42;;;7.90;87.20;;;;;;5089063;28;20147;-85
2021/12/12 06:35:11;;;;;;;36.38;17.65;;;7.90;87.20;;;;;;5090119;28;20501;-85
2021/12/12 06:37:39;;;;;;;37.15;19.33;;;7.90;87.20;;;;;;5088384;28;20051;-85
2021/12/12 06:40:09;;;;;;;37.05;18.25;;;7.90;87.30;;;;;;5088673;28;20036;-84
2021/12/12 06:42:37;;;;;;;40.17;18.25;;;8.00;87.30;;;;;;5091269;28;20075;-85
2021/12/12 06:45:07;;;;;;;39.33;20.42;;;8.00;87.30;;;;;;5091131;28;20093;-84
2021/12/12 06:47:35;;;;;;;41.22;20.45;;;8.00;87.30;;;;;;5089845;28;20047;-85
2021/12/12 06:50:04;;;;;;;41.13;19.13;;;8.00;87.30;;;;;;5089748;28;20068;-85
2021/12/12 06:52:31;;;;;;;38.10;18.98;;;8.00;87.40;;;;;;5089575;28;20048;-84
2021/12/12 06:54:59;;;;;;;38.25;19.02;;;8.00;87.40;;;;;;5072779;28;20055;-84
2021/12/12 06:57:27;;;;;;;36.25;19.52;;;8.10;87.40;;;;;;5087567;28;20048;-85
2021/12/12 06:59:56;;;;;;;36.85;17.50;;;8.10;87.40;;;;;;5087235;28;20051;-85
2021/12/12 07:02:24;;;;;;;33.15;18.75;;;8.10;87.40;;;;;;5089294;28;20062;-84
2021/12/12 07:04:52;;;;;;;31.27;17.60;;;8.10;87.40;;;;;;5089544;28;20055;-84
2021/12/12 07:07:20;;;;;;;37.55;18.95;;;8.10;87.40;;;;;;5089095;28;20048;-85
2021/12/12 07:09:48;;;;;;;47.70;22.42;;;8.20;87.40;;;;;;5089597;28;20078;-85
2021/12/12 07:12:22;;;;;;;39.65;19.38;;;8.20;87.40;;;;;;5091558;28;20048;-85
2021/12/12 07:14:51;;;;;;;36.47;17.00;;;8.20;87.40;;;;;;5089264;28;20044;-84
2021/12/12 07:17:19;;;;;;;39.42;20.88;;;8.20;87.40;;;;;;5089266;28;20044;-85
2021/12/12 07:19:47;;;;;;;35.50;18.58;;;8.20;87.40;;;;;;5087530;28;20501;-85
2021/12/12 07:22:14;;;;;;;45.22;22.30;;;8.20;87.40;;;;;;5089346;28;20039;-85
2021/12/12 07:24:42;;;;;;;35.05;17.80;;;8.20;87.40;;;;;;5090408;28;20059;-84
2021/12/12 07:27:13;;;;;;;43.47;21.02;;;8.30;87.40;;;;;;5089032;28;20398;-85
2021/12/12 07:29:41;;;;;;;46.75;21.77;;;8.20;87.40;;;;;;5089068;28;20510;-84
2021/12/12 07:32:09;;;;;;;32.03;18.60;;;8.30;87.50;;;;;;5089017;28;20040;-84
2021/12/12 07:34:37;;;;;;;50.28;23.67;;;8.30;87.50;;;;;;5088804;28;20135;-85
2021/12/12 07:37:07;;;;;;;49.20;23.35;;;8.30;87.40;;;;;;5089183;28;20048;-85
2021/12/12 07:39:37;;;;;;;46.03;21.85;;;8.30;87.50;;;;;;5089060;28;20059;-85
2021/12/12 07:42:05;;;;;;;38.80;20.23;;;8.30;87.50;;;;;;5090174;28;20062;-85
2021/12/12 07:44:35;;;;;;;43.70;22.35;;;8.40;87.50;;;;;;5088474;28;20520;-85
2021/12/12 07:47:06;;;;;;;41.78;20.65;;;8.40;87.50;;;;;;5087725;28;20040;-85
2021/12/12 07:49:39;;;;;;;56.42;25.77;;;8.40;87.50;;;;;;5088593;28;20126;-85
2021/12/12 07:52:11;;;;;;;40.05;21.60;;;8.40;87.50;;;;;;5088865;28;20055;-84
2021/12/12 07:54:39;;;;;;;38.20;20.50;;;8.40;87.50;;;;;;5090020;28;20044;-85
2021/12/12 07:57:08;;;;;;;39.50;21.38;;;8.40;87.50;;;;;;5090341;28;20063;-85
2021/12/12 07:59:37;;;;;;;43.70;24.20;;;8.50;87.50;;;;;;5087264;28;20493;-84
2021/12/12 08:02:06;;;;;;;44.13;22.27;;;8.40;87.50;;;;;;5088458;28;20051;-84
2021/12/12 08:04:36;;;;;;;36.63;20.55;;;8.50;87.50;;;;;;5087134;28;20044;-84
2021/12/12 08:07:08;;;;;;;45.17;22.60;;;8.50;87.50;;;;;;5079343;28;20066;-86
2021/12/12 08:09:41;;;;;;;42.40;21.38;;;8.50;87.50;;;;;;5089123;28;20072;-85
2021/12/12 08:12:16;;;;;;;39.08;20.83;;;8.50;87.50;;;;;;5100652;28;20048;-85
2021/12/12 08:14:43;;;;;;;36.83;20.88;;;8.50;87.50;;;;;;5091271;28;20063;-85
2021/12/12 08:17:12;;;;;;;36.75;20.40;;;8.50;87.50;;;;;;5088278;28;20040;-85
2021/12/12 08:19:40;;;;;;;37.97;20.45;;;8.50;87.50;;;;;;5089366;28;20056;-85
2021/12/12 08:22:10;;;;;;;31.60;18.38;;;8.60;87.50;;;;;;5089464;28;20054;-85
2021/12/12 08:24:39;;;;;;;33.97;20.27;;;8.60;87.50;;;;;;5098813;28;20054;-85
2021/12/12 08:27:09;;;;;;;36.25;20.17;;;8.60;87.50;;;;;;5090689;28;20044;-85
2021/12/12 08:29:37;;;;;;;36.15;19.50;;;8.60;87.50;;;;;;5088299;28;20410;-85
2021/12/12 08:32:08;;;;;;;34.30;20.55;;;8.60;87.50;;;;;;5089204;28;20424;-85
2021/12/12 08:34:53;;;;;;;34.88;19.83;;;8.70;87.50;;;;;;5089229;28;20149;-85
2021/12/12 08:37:20;;;;;;;29.70;18.50;;;8.70;87.50;;;;;;5086834;28;20428;-86
2021/12/12 08:39:47;;;;;;;31.80;18.13;;;8.70;87.50;;;;;;5089285;28;20452;-85
2021/12/12 08:42:15;;;;;;;34.05;19.88;;;8.70;87.50;;;;;;5091663;28;20070;-85
2021/12/12 08:44:42;;;;;;;35.40;20.52;;;8.70;87.50;;;;;;5089579;28;20048;-85
2021/12/12 08:47:12;;;;;;;34.10;19.92;;;8.70;87.50;;;;;;5088823;28;20064;-85
2021/12/12 08:49:41;;;;;;;30.38;17.92;;;8.70;87.50;;;;;;5088267;28;20063;-85
2021/12/12 08:52:17;;;;;;;29.58;18.70;;;8.80;87.60;;;;;;5089373;28;20040;-85
2021/12/12 08:54:46;;;;;;;30.23;18.33;;;8.80;87.60;;;;;;5089075;28;20050;-85
2021/12/12 08:57:30;;;;;;;31.50;19.40;;;8.80;87.60;;;;;;5094891;28;20066;-85
2021/12/12 09:00:16;;;;;;;27.73;18.52;;;8.80;87.60;;;;;;5096745;28;20052;-86
2021/12/12 09:02:45;;;;;;;28.35;17.63;;;8.90;87.60;;;;;;5093786;28;20048;-85
2021/12/12 09:05:20;;;;;;;25.35;16.50;;;8.90;87.60;;;;;;5092997;28;20458;-85
2021/12/12 09:08:14;;;;;;;28.15;17.75;;;8.90;87.60;;;;;;5092462;28;20418;-85
2021/12/12 09:10:46;;;;;;;27.08;17.33;;;8.90;87.60;;;;;;5092865;28;20448;-85
2021/12/12 09:13:21;;;;;;;26.08;16.63;;;8.90;87.60;;;;;;5093068;28;20044;-85
2021/12/12 09:16:24;;;;;;;21.35;15.40;;;8.90;87.60;;;;;;5091061;28;20136;-85
2021/12/12 09:18:59;;;;;;;27.35;16.25;;;8.90;87.60;;;;;;5051596;28;20048;-85
2021/12/12 09:21:55;;;;;;;26.42;16.90;;;8.90;87.60;;;;;;5048243;28;20052;-85
2021/12/12 09:24:44;;;;;;;23.63;15.95;;;9.00;87.60;;;;;;5052340;28;20068;-85
2021/12/12 09:27:22;;;;;;;22.70;15.48;;;9.00;87.60;;;;;;5050198;28;20072;-85
2021/12/12 09:30:01;;;;;;;20.83;15.07;;;9.00;87.60;;;;;;5052395;28;20045;-85
2021/12/12 09:32:39;;;;;;;26.25;15.70;;;9.00;87.60;;;;;;5050873;28;20063;-86
2021/12/12 09:35:16;;;;;;;22.20;14.77;;;9.10;87.60;;;;;;5052258;28;20082;-85
2021/12/12 09:37:55;;;;;;;20.08;14.30;;;9.10;87.60;;;;;;5052209;28;20053;-85
2021/12/12 09:40:27;;;;;;;23.63;16.02;;;9.10;87.60;;;;;;5051378;28;20115;-85
2021/12/12 09:43:20;;;;;;;23.25;14.93;;;9.10;87.60;;;;;;5052378;28;20044;-85
2021/12/12 09:46:19;;;;;;;21.73;14.10;;;9.10;87.60;;;;;;5051126;28;20639;-86
2021/12/12 09:52:18;;;;;;;20.83;13.75;;;9.20;87.60;;;;;;5038004;28;20044;-85
2021/12/12 09:55:01;;;;;;;19.75;13.75;;;9.20;87.60;;;;;;5075123;28;20070;-85
2021/12/12 09:57:48;;;;;;;17.40;13.02;;;9.20;87.60;;;;;;5090144;28;20583;-86
2021/12/12 10:00:41;;;;;;;17.35;13.00;;;9.30;87.60;;;;;;5096959;28;20047;-85
2021/12/12 10:03:16;;;;;;;16.73;12.45;;;9.30;87.60;;;;;;5093837;28;20052;-85
2021/12/12 10:06:13;;;;;;;17.73;12.93;;;9.30;87.60;;;;;;5091765;28;20125;-85
2021/12/12 10:09:04;;;;;;;23.30;12.18;;;9.30;87.60;;;;;;5091667;28;20058;-85
2021/12/12 10:11:54;;;;;;;18.52;13.07;;;9.40;87.60;;;;;;5091585;28;20048;-85
2021/12/12 10:14:35;;;;;;;17.05;12.13;;;9.40;87.50;;;;;;5091113;28;20044;-85
2021/12/12 10:17:10;;;;;;;19.55;12.68;;;9.40;87.50;;;;;;5091489;28;20040;-85
2021/12/12 10:19:43;;;;;;;18.90;12.60;;;9.40;87.50;;;;;;5091066;28;20052;-85
2021/12/12 10:22:33;;;;;;;15.80;12.13;;;9.40;87.50;;;;;;5091064;28;20036;-85
2021/12/12 10:25:12;;;;;;;16.25;11.68;;;9.40;87.50;;;;;;5075831;28;20048;-85
2021/12/12 10:27:48;;;;;;;14.88;10.77;;;9.40;87.50;;;;;;5092281;28;20040;-85
2021/12/12 10:33:53;;;;;;;18.98;12.05;;;9.40;87.40;;;;;;5067472;28;20040;-85
2021/12/12 10:36:29;;;;;;;15.18;11.20;;;9.40;87.40;;;;;;5070181;28;20048;-85
2021/12/12 10:39:20;;;;;;;16.25;11.57;;;9.40;87.40;;;;;;5068229;28;20056;-85
2021/12/12 10:41:53;;;;;;;16.20;11.48;;;9.50;87.40;;;;;;5068838;28;20045;-86
2021/12/12 10:44:25;;;;;;;17.27;11.45;;;9.50;87.40;;;;;;5068032;28;20123;-86
2021/12/12 10:47:05;;;;;;;15.32;11.15;;;9.50;87.40;;;;;;5068327;28;20076;-85
2021/12/12 10:50:04;;;;;;;14.85;11.63;;;9.50;87.40;;;;;;5068704;28;20048;-85
2021/12/12 10:52:51;;;;;;;13.93;10.95;;;9.60;87.40;;;;;;5068212;28;20048;-85
2021/12/12 10:55:21;;;;;;;14.85;12.00;;;9.60;87.40;;;;;;5054293;28;20044;-85
2021/12/12 10:58:02;;;;;;;16.67;12.13;;;9.60;87.40;;;;;;5068048;28;20651;-85
2021/12/12 11:00:39;;;;;;;17.52;12.38;;;9.60;87.40;;;;;;5073320;28;20044;-85
2021/12/12 11:03:11;;;;;;;16.73;12.55;;;9.70;87.50;;;;;;5070399;28;20056;-85
2021/12/12 11:05:45;;;;;;;18.65;13.50;;;9.70;87.50;;;;;;5088216;28;20055;-85
2021/12/12 11:08:27;;;;;;;15.85;11.75;;;9.80;87.50;;;;;;5090737;28;20036;-84
2021/12/12 11:11:22;;;;;;;18.65;12.75;;;9.80;87.50;;;;;;5090309;28;20792;-85
2021/12/12 11:14:11;;;;;;;18.50;12.60;;;9.90;87.50;;;;;;5089639;28;20054;-85
2021/12/12 11:16:51;;;;;;;17.02;13.80;;;9.90;87.50;;;;;;5090479;28;20044;-85
2021/12/12 11:19:36;;;;;;;14.20;11.23;;;9.90;87.50;;;;;;5089895;28;20048;-84
2021/12/12 11:22:28;;;;;;;12.70;9.35;;;9.90;87.40;;;;;;5074858;28;20099;-85
2021/12/12 11:25:10;;;;;;;17.17;11.73;;;10.00;87.50;;;;;;5090548;28;20044;-85
2021/12/12 11:27:50;;;;;;;17.25;11.20;;;10.00;87.40;;;;;;5088175;28;20047;-85
2021/12/12 11:30:25;;;;;;;15.45;10.32;;;10.00;87.40;;;;;;5091219;28;20044;-84
2021/12/12 11:32:55;;;;;;;12.80;10.13;;;10.10;87.40;;;;;;5090151;28;20054;-85
2021/12/12 11:35:25;;;;;;;13.65;11.02;;;10.10;87.40;;;;;;5089885;28;20040;-85
2021/12/12 11:38:07;;;;;;;14.18;9.85;;;10.10;87.30;;;;;;5090121;28;20510;-85
2021/12/12 11:40:40;;;;;;;13.10;9.77;;;10.10;87.30;;;;;;5089994;28;20083;-85
2021/12/12 11:43:17;;;;;;;12.73;10.63;;;10.20;87.20;;;;;;5089997;28;20044;-84
2021/12/12 11:45:59;;;;;;;13.18;9.77;;;10.20;87.20;;;;;;5090150;28;20052;-85
2021/12/12 11:48:40;;;;;;;12.32;9.68;;;10.20;87.20;;;;;;5088149;28;20048;-85
2021/12/12 11:51:15;;;;;;;12.55;9.52;;;10.20;87.10;;;;;;5091597;28;20067;-85
2021/12/12 11:53:50;;;;;;;12.48;9.73;;;10.30;87.10;;;;;;5088766;28;20150;-85
2021/12/12 11:56:23;;;;;;;19.55;10.98;;;10.30;87.10;;;;;;5089520;28;20069;-85
2021/12/12 11:59:05;;;;;;;14.55;9.93;;;10.30;87.00;;;;;;5089468;28;20497;-84
2021/12/12 12:01:47;;;;;;;13.35;10.27;;;10.40;87.10;;;;;;5096730;28;20066;-85
2021/12/12 12:04:32;;;;;;;11.88;8.98;;;10.40;87.10;;;;;;5089909;28;20513;-85
2021/12/12 12:07:11;;;;;;;12.38;9.98;;;10.40;87.10;;;;;;5073861;28;20054;-85
2021/12/12 12:09:56;;;;;;;11.93;9.38;;;10.40;87.00;;;;;;5090381;28;20050;-83
2021/12/12 12:12:41;;;;;;;12.45;9.65;;;10.40;87.00;;;;;;5091049;28;20052;-85
2021/12/12 12:15:11;;;;;;;12.65;9.75;;;10.40;87.00;;;;;;5091765;28;20044;-85
2021/12/12 12:17:56;;;;;;;12.50;9.55;;;10.40;87.00;;;;;;5089712;28;20047;-85
2021/12/12 12:20:43;;;;;;;12.73;9.93;;;10.40;86.90;;;;;;5089190;28;20055;-85
2021/12/12 12:23:54;;;;;;;19.80;10.75;;;10.50;86.90;;;;;;5089762;28;20040;-85
2021/12/12 12:29:26;;;;;;;13.77;10.68;;;10.50;86.90;;;;;;5089450;28;20047;-85
2021/12/12 12:32:12;;;;;;;12.30;9.50;;;10.60;86.90;;;;;;5092133;28;20054;-85
2021/12/12 12:35:23;;;;;;;11.60;9.27;;;10.60;86.90;;;;;;5093329;28;20054;-85
2021/12/12 12:38:27;;;;;;;14.77;10.50;;;10.60;86.80;;;;;;5092461;28;20050;-85
2021/12/12 12:41:32;;;;;;;13.23;10.40;;;10.60;86.80;;;;;;5093020;28;20048;-85
2021/12/12 12:44:53;;;;;;;13.02;9.05;;;10.60;86.80;;;;;;5093285;28;20044;-85
2021/12/12 12:47:42;;;;;;;13.75;9.45;;;10.70;86.80;;;;;;5093133;28;20429;-85
2021/12/12 12:50:49;;;;;;;12.40;9.10;;;10.70;86.70;;;;;;5092855;28;20055;-85
2021/12/12 12:53:53;;;;;;;12.95;9.45;;;10.70;86.70;;;;;;5092636;28;20043;-85
2021/12/12 12:57:09;;;;;;;13.68;9.38;;;10.80;86.60;;;;;;5092998;28;20054;-85
2021/12/12 12:59:45;;;;;;;11.73;9.55;;;10.80;86.60;;;;;;5031799;28;20045;-85
2021/12/12 13:02:17;;;;;;;12.18;9.05;;;10.80;86.50;;;;;;5027427;28;20045;-85
2021/12/12 13:04:56;;;;;;;12.18;8.75;;;10.80;86.50;;;;;;5026998;28;20066;-84
2021/12/12 13:08:17;;;;;;;11.57;8.95;;;10.80;86.40;;;;;;5028420;28;20042;-86
2021/12/12 13:10:47;;;;;;;17.08;11.68;;;10.80;86.40;;;;;;5031963;28;20057;-84
2021/12/12 13:13:22;;;;;;;13.40;10.18;;;10.90;86.40;;;;;;5031953;28;20045;-85
2021/12/12 13:16:00;;;;;;;16.17;10.38;;;10.80;86.40;;;;;;5032130;28;20118;-84
2021/12/12 13:18:47;;;;;;;13.77;10.20;;;10.90;86.40;;;;;;5028787;28;20087;-85
2021/12/12 13:21:42;;;;;;;11.68;8.75;;;10.90;86.40;;;;;;5030718;28;20059;-84
2021/12/12 13:24:33;;;;;;;15.98;9.95;;;10.90;86.40;;;;;;5029878;28;20055;-84
2021/12/12 13:27:07;;;;;;;12.98;10.38;;;10.90;86.30;;;;;;5031406;28;20071;-85
2021/12/12 13:30:06;;;;;;;13.88;10.43;;;10.90;86.30;;;;;;5031569;28;20474;-85
2021/12/12 13:32:50;;;;;;;13.45;10.05;;;10.90;86.20;;;;;;5031732;28;20045;-84
2021/12/12 13:35:26;;;;;;;13.60;9.07;;;10.90;86.20;;;;;;5032965;28;20049;-85
2021/12/12 13:38:15;;;;;;;13.63;9.80;;;10.90;86.20;;;;;;5092199;28;20039;-85
2021/12/12 13:41:04;;;;;;;11.95;8.55;;;10.90;86.10;;;;;;5092223;28;20052;-85
2021/12/12 13:43:47;;;;;;;14.13;9.93;;;10.90;86.10;;;;;;5092320;28;20040;-84
2021/12/12 13:46:42;;;;;;;15.32;10.30;;;11.00;86.00;;;;;;5078523;28;20058;-85